sensor_id;sensor_type;location;lat;lon;timestamp;pressure;altitude;pressure_sealevel;temperature;humidity
12349;BME280;5974;42.710;27.258;2023-02-12T00:01:39;101194.91;;;-5.44;100.00
12349;BME280;5974;42.710;27.258;2023-02-12T00:04:06;101187.72;;;-5.33;100.00
12349;BME280;5974;42.710;27.258;2023-02-12T00:06:33;101182.78;;;-5.29;100.00
12349;BME280;5974;42.710;27.258;2023-02-12T00:09:00;101189.13;;;-5.81;100.00
12349;BME280;5974;42.710;27.258;2023-02-12T00:11:29;101150.94;;;-5.81;100.00
12349;BME280;5974;42.710;27.258;2023-02-12T00:13:56;101186.38;;;-5.65;100.00
12349;BME280;5974;42.710;27.258;2023-02-12T00:16:25;101165.28;;;-5.63;100.00
12349;BME280;5974;42.710;27.258;2023-02-12T00:18:54;101186.41;;;-5.44;100.00
12349;BME280;5974;42.710;27.258;2023-02-12T00:21:22;101182.38;;;-5.39;100.00
12349;BME280;5974;42.710;27.258;2023-02-12T00:23:49;101184.38;;;-5.32;100.00
12349;BME280;5974;42.710;27.258;2023-02-12T00:26:18;101179.59;;;-5.45;100.00
12349;BME280;5974;42.710;27.258;2023-02-12T00:28:46;101183.56;;;-6.51;100.00
12349;BME280;5974;42.710;27.258;2023-02-12T00:31:15;101177.22;;;-6.03;100.00
12349;BME280;5974;42.710;27.258;2023-02-12T00:33:42;101188.19;;;-6.23;100.00
12349;BME280;5974;42.710;27.258;2023-02-12T00:36:12;101185.91;;;-6.36;100.00
12349;BME280;5974;42.710;27.258;2023-02-12T00:38:40;101179.88;;;-6.19;100.00
12349;BME280;5974;42.710;27.258;2023-02-12T00:41:06;101185.03;;;-6.18;100.00
12349;BME280;5974;42.710;27.258;2023-02-12T00:43:33;101185.50;;;-6.45;100.00
12349;BME280;5974;42.710;27.258;2023-02-12T00:46:01;101185.56;;;-6.44;100.00
12349;BME280;5974;42.710;27.258;2023-02-12T00:48:29;101180.66;;;-6.39;100.00
12349;BME280;5974;42.710;27.258;2023-02-12T00:50:56;101180.59;;;-6.03;100.00
12349;BME280;5974;42.710;27.258;2023-02-12T00:53:23;101174.38;;;-6.47;100.00
12349;BME280;5974;42.710;27.258;2023-02-12T00:55:49;101179.94;;;-6.18;100.00
12349;BME280;5974;42.710;27.258;2023-02-12T00:58:16;101178.22;;;-6.19;100.00
12349;BME280;5974;42.710;27.258;2023-02-12T01:00:43;101172.09;;;-5.82;100.00
12349;BME280;5974;42.710;27.258;2023-02-12T01:03:11;101172.50;;;-5.73;100.00
12349;BME280;5974;42.710;27.258;2023-02-12T01:05:38;101172.41;;;-5.95;100.00
12349;BME280;5974;42.710;27.258;2023-02-12T01:08:05;101164.22;;;-5.68;100.00
12349;BME280;5974;42.710;27.258;2023-02-12T01:10:32;101160.06;;;-5.24;100.00
12349;BME280;5974;42.710;27.258;2023-02-12T01:12:59;101136.44;;;-5.20;100.00
12349;BME280;5974;42.710;27.258;2023-02-12T01:15:26;101160.94;;;-4.79;100.00
12349;BME280;5974;42.710;27.258;2023-02-12T01:17:53;101159.78;;;-5.10;100.00
12349;BME280;5974;42.710;27.258;2023-02-12T01:20:22;101137.25;;;-4.99;100.00
12349;BME280;5974;42.710;27.258;2023-02-12T01:22:50;101139.81;;;-4.53;100.00
12349;BME280;5974;42.710;27.258;2023-02-12T01:25:17;101135.38;;;-4.35;100.00
12349;BME280;5974;42.710;27.258;2023-02-12T01:27:45;101143.94;;;-4.57;100.00
12349;BME280;5974;42.710;27.258;2023-02-12T01:30:12;101145.81;;;-4.29;100.00
12349;BME280;5974;42.710;27.258;2023-02-12T01:32:39;101154.50;;;-4.70;100.00
12349;BME280;5974;42.710;27.258;2023-02-12T01:35:07;101150.75;;;-5.02;100.00
12349;BME280;5974;42.710;27.258;2023-02-12T01:37:36;101134.41;;;-5.07;100.00
12349;BME280;5974;42.710;27.258;2023-02-12T01:40:05;101146.19;;;-4.64;100.00
12349;BME280;5974;42.710;27.258;2023-02-12T01:42:32;101142.84;;;-4.63;100.00
12349;BME280;5974;42.710;27.258;2023-02-12T01:45:40;101144.13;;;-4.28;100.00
12349;BME280;5974;42.710;27.258;2023-02-12T01:48:10;101131.91;;;-4.37;100.00
12349;BME280;5974;42.710;27.258;2023-02-12T01:50:37;101146.78;;;-4.25;100.00
12349;BME280;5974;42.710;27.258;2023-02-12T01:53:07;101150.81;;;-3.83;100.00
12349;BME280;5974;42.710;27.258;2023-02-12T01:55:34;101154.69;;;-4.65;100.00
12349;BME280;5974;42.710;27.258;2023-02-12T01:58:01;101150.44;;;-4.19;100.00
12349;BME280;5974;42.710;27.258;2023-02-12T02:00:29;101144.03;;;-3.83;100.00
12349;BME280;5974;42.710;27.258;2023-02-12T02:02:58;101144.13;;;-3.79;100.00
12349;BME280;5974;42.710;27.258;2023-02-12T02:05:32;101145.44;;;-3.65;100.00
12349;BME280;5974;42.710;27.258;2023-02-12T02:08:06;101146.28;;;-3.66;100.00
12349;BME280;5974;42.710;27.258;2023-02-12T02:10:33;101139.09;;;-4.02;100.00
12349;BME280;5974;42.710;27.258;2023-02-12T02:13:00;101128.75;;;-4.06;100.00
12349;BME280;5974;42.710;27.258;2023-02-12T02:15:47;101131.81;;;-4.40;100.00
12349;BME280;5974;42.710;27.258;2023-02-12T02:18:20;101136.78;;;-3.69;100.00
12349;BME280;5974;42.710;27.258;2023-02-12T02:24:09;101135.16;;;-3.42;100.00
12349;BME280;5974;42.710;27.258;2023-02-12T02:26:56;101133.81;;;-3.29;100.00
12349;BME280;5974;42.710;27.258;2023-02-12T02:29:43;101141.31;;;-3.35;100.00
12349;BME280;5974;42.710;27.258;2023-02-12T02:32:16;101143.97;;;-3.32;100.00
12349;BME280;5974;42.710;27.258;2023-02-12T02:34:49;101136.78;;;-3.44;100.00
12349;BME280;5974;42.710;27.258;2023-02-12T02:37:22;101144.63;;;-3.90;100.00
12349;BME280;5974;42.710;27.258;2023-02-12T02:39:54;101104.19;;;-3.51;100.00
12349;BME280;5974;42.710;27.258;2023-02-12T02:42:27;101136.59;;;-2.95;100.00
12349;BME280;5974;42.710;27.258;2023-02-12T02:45:01;101129.41;;;-3.08;100.00
12349;BME280;5974;42.710;27.258;2023-02-12T02:47:34;101140.72;;;-3.00;100.00
12349;BME280;5974;42.710;27.258;2023-02-12T02:50:08;101143.38;;;-2.97;100.00
12349;BME280;5974;42.710;27.258;2023-02-12T02:52:39;101132.16;;;-3.02;100.00
12349;BME280;5974;42.710;27.258;2023-02-12T02:55:10;101132.97;;;-3.03;100.00
12349;BME280;5974;42.710;27.258;2023-02-12T02:57:41;101131.56;;;-2.92;100.00
12349;BME280;5974;42.710;27.258;2023-02-12T03:00:15;101122.91;;;-2.97;100.00
12349;BME280;5974;42.710;27.258;2023-02-12T03:02:49;101113.59;;;-3.50;100.00
12349;BME280;5974;42.710;27.258;2023-02-12T03:05:21;101121.31;;;-2.93;100.00
12349;BME280;5974;42.710;27.258;2023-02-12T03:07:53;101127.88;;;-2.73;100.00
12349;BME280;5974;42.710;27.258;2023-02-12T03:10:24;101131.94;;;-2.80;100.00
12349;BME280;5974;42.710;27.258;2023-02-12T03:12:56;101130.34;;;-2.76;100.00
12349;BME280;5974;42.710;27.258;2023-02-12T03:15:30;101122.84;;;-2.70;100.00
12349;BME280;5974;42.710;27.258;2023-02-12T03:18:01;101118.16;;;-2.85;100.00
12349;BME280;5974;42.710;27.258;2023-02-12T03:20:32;101115.44;;;-2.61;100.00
12349;BME280;5974;42.710;27.258;2023-02-12T03:23:03;101114.38;;;-2.67;100.00
12349;BME280;5974;42.710;27.258;2023-02-12T03:25:34;101117.75;;;-3.26;100.00
12349;BME280;5974;42.710;27.258;2023-02-12T03:28:06;101117.34;;;-3.65;100.00
12349;BME280;5974;42.710;27.258;2023-02-12T03:30:41;101116.31;;;-3.70;100.00
12349;BME280;5974;42.710;27.258;2023-02-12T03:33:18;101123.84;;;-3.21;100.00
12349;BME280;5974;42.710;27.258;2023-02-12T03:35:54;101122.91;;;-2.68;100.00
12349;BME280;5974;42.710;27.258;2023-02-12T03:38:32;101122.16;;;-2.64;100.00
12349;BME280;5974;42.710;27.258;2023-02-12T03:41:04;101114.09;;;-2.78;100.00
12349;BME280;5974;42.710;27.258;2023-02-12T03:43:44;101116.63;;;-2.48;100.00
12349;BME280;5974;42.710;27.258;2023-02-12T03:46:19;101116.75;;;-3.03;100.00
12349;BME280;5974;42.710;27.258;2023-02-12T03:48:56;101106.38;;;-2.50;100.00
12349;BME280;5974;42.710;27.258;2023-02-12T03:51:28;101114.38;;;-2.67;100.00
12349;BME280;5974;42.710;27.258;2023-02-12T03:53:57;101112.53;;;-2.43;100.00
12349;BME280;5974;42.710;27.258;2023-02-12T03:56:27;101112.47;;;-2.45;100.00
12349;BME280;5974;42.710;27.258;2023-02-12T03:58:57;101109.41;;;-2.63;100.00
12349;BME280;5974;42.710;27.258;2023-02-12T04:01:25;101113.81;;;-2.57;100.00
12349;BME280;5974;42.710;27.258;2023-02-12T04:03:54;101101.19;;;-2.51;100.00
12349;BME280;5974;42.710;27.258;2023-02-12T04:06:23;101109.09;;;-2.44;100.00
12349;BME280;5974;42.710;27.258;2023-02-12T04:08:50;101109.22;;;-2.39;100.00
12349;BME280;5974;42.710;27.258;2023-02-12T04:11:24;101103.69;;;-2.54;100.00
12349;BME280;5974;42.710;27.258;2023-02-12T04:14:05;101110.75;;;-3.04;100.00
12349;BME280;5974;42.710;27.258;2023-02-12T04:16:40;101107.91;;;-2.55;100.00
12349;BME280;5974;42.710;27.258;2023-02-12T04:19:14;101116.97;;;-2.36;100.00
12349;BME280;5974;42.710;27.258;2023-02-12T04:21:47;101118.75;;;-2.34;100.00
12349;BME280;5974;42.710;27.258;2023-02-12T04:24:30;101114.91;;;-2.18;100.00
12349;BME280;5974;42.710;27.258;2023-02-12T04:27:05;101111.44;;;-2.22;100.00
12349;BME280;5974;42.710;27.258;2023-02-12T04:29:44;101119.50;;;-2.06;100.00
12349;BME280;5974;42.710;27.258;2023-02-12T04:32:16;101115.44;;;-1.98;100.00
12349;BME280;5974;42.710;27.258;2023-02-12T04:34:49;101123.53;;;-2.16;100.00
12349;BME280;5974;42.710;27.258;2023-02-12T04:37:22;101114.38;;;-2.06;100.00
12349;BME280;5974;42.710;27.258;2023-02-12T04:39:50;101115.56;;;-1.94;100.00
12349;BME280;5974;42.710;27.258;2023-02-12T04:42:19;101124.88;;;-1.97;100.00
12349;BME280;5974;42.710;27.258;2023-02-12T04:44:46;101138.88;;;-1.85;100.00
12349;BME280;5974;42.710;27.258;2023-02-12T04:47:14;101131.47;;;-2.05;100.00
12349;BME280;5974;42.710;27.258;2023-02-12T04:49:41;101133.50;;;-1.94;100.00
12349;BME280;5974;42.710;27.258;2023-02-12T04:52:09;101141.28;;;-1.91;100.00
12349;BME280;5974;42.710;27.258;2023-02-12T04:54:37;101147.88;;;-1.99;100.00
12349;BME280;5974;42.710;27.258;2023-02-12T04:57:04;101140.47;;;-1.88;100.00
12349;BME280;5974;42.710;27.258;2023-02-12T04:59:30;101141.84;;;-1.68;100.00
12349;BME280;5974;42.710;27.258;2023-02-12T05:01:57;101148.75;;;-1.66;100.00
12349;BME280;5974;42.710;27.258;2023-02-12T05:04:24;101148.16;;;-1.55;100.00
12349;BME280;5974;42.710;27.258;2023-02-12T05:06:51;101146.06;;;-1.70;100.00
12349;BME280;5974;42.710;27.258;2023-02-12T05:09:19;101146.41;;;-1.56;100.00
12349;BME280;5974;42.710;27.258;2023-02-12T05:11:46;101158.84;;;-1.37;100.00
12349;BME280;5974;42.710;27.258;2023-02-12T05:14:13;101160.91;;;-1.91;100.00
12349;BME280;5974;42.710;27.258;2023-02-12T05:16:40;101156.50;;;-1.28;100.00
12349;BME280;5974;42.710;27.258;2023-02-12T05:19:07;101162.63;;;-1.23;100.00
12349;BME280;5974;42.710;27.258;2023-02-12T05:21:34;101160.41;;;-1.08;100.00
12349;BME280;5974;42.710;27.258;2023-02-12T05:24:01;101168.06;;;-1.10;100.00
12349;BME280;5974;42.710;27.258;2023-02-12T05:26:30;101162.41;;;-1.67;100.00
12349;BME280;5974;42.710;27.258;2023-02-12T05:28:57;101165.00;;;-1.65;100.00
12349;BME280;5974;42.710;27.258;2023-02-12T05:31:24;101170.13;;;-1.96;100.00
12349;BME280;5974;42.710;27.258;2023-02-12T05:33:51;101165.16;;;-1.92;100.00
12349;BME280;5974;42.710;27.258;2023-02-12T05:36:19;101170.13;;;-1.98;100.00
12349;BME280;5974;42.710;27.258;2023-02-12T05:38:47;101181.41;;;-1.90;100.00
12349;BME280;5974;42.710;27.258;2023-02-12T05:41:15;101185.72;;;-1.89;100.00
12349;BME280;5974;42.710;27.258;2023-02-12T05:43:44;101192.94;;;-1.74;100.00
12349;BME280;5974;42.710;27.258;2023-02-12T05:46:11;101191.28;;;-1.39;100.00
12349;BME280;5974;42.710;27.258;2023-02-12T05:48:39;101193.88;;;-1.38;100.00
12349;BME280;5974;42.710;27.258;2023-02-12T05:51:08;101197.13;;;-1.45;100.00
12349;BME280;5974;42.710;27.258;2023-02-12T05:53:35;101198.19;;;-1.01;100.00
12349;BME280;5974;42.710;27.258;2023-02-12T05:56:10;101195.28;;;-0.40;100.00
12349;BME280;5974;42.710;27.258;2023-02-12T05:58:38;101186.59;;;-1.21;98.68
12349;BME280;5974;42.710;27.258;2023-02-12T06:01:13;101211.44;;;-1.20;98.13
12349;BME280;5974;42.710;27.258;2023-02-12T06:03:41;101212.34;;;-1.17;97.22
12349;BME280;5974;42.710;27.258;2023-02-12T06:06:08;101199.44;;;-1.21;97.53
12349;BME280;5974;42.710;27.258;2023-02-12T06:08:36;101211.44;;;-0.45;97.75
12349;BME280;5974;42.710;27.258;2023-02-12T06:11:04;101209.78;;;-0.43;96.71
12349;BME280;5974;42.710;27.258;2023-02-12T06:13:32;101217.06;;;0.69;95.21
12349;BME280;5974;42.710;27.258;2023-02-12T06:15:59;101200.44;;;0.02;91.75
12349;BME280;5974;42.710;27.258;2023-02-12T06:18:27;101223.69;;;0.54;90.81
12349;BME280;5974;42.710;27.258;2023-02-12T06:20:54;101225.94;;;0.36;91.91
12349;BME280;5974;42.710;27.258;2023-02-12T06:23:21;101214.69;;;0.79;91.49
12349;BME280;5974;42.710;27.258;2023-02-12T06:25:48;101225.00;;;0.79;91.97
12349;BME280;5974;42.710;27.258;2023-02-12T06:28:16;101227.00;;;0.97;92.19
12349;BME280;5974;42.710;27.258;2023-02-12T06:30:43;101224.00;;;0.73;89.12
12349;BME280;5974;42.710;27.258;2023-02-12T06:33:09;101227.38;;;0.69;88.82
12349;BME280;5974;42.710;27.258;2023-02-12T06:35:38;101221.22;;;0.61;88.09
12349;BME280;5974;42.710;27.258;2023-02-12T06:38:05;101230.84;;;0.71;87.41
12349;BME280;5974;42.710;27.258;2023-02-12T06:40:32;101235.72;;;1.08;87.78
12349;BME280;5974;42.710;27.258;2023-02-12T06:42:59;101231.88;;;1.34;86.15
12349;BME280;5974;42.710;27.258;2023-02-12T06:45:26;101228.38;;;1.29;86.45
12349;BME280;5974;42.710;27.258;2023-02-12T06:47:53;101222.56;;;0.88;86.64
12349;BME280;5974;42.710;27.258;2023-02-12T06:50:20;101231.31;;;0.98;86.98
12349;BME280;5974;42.710;27.258;2023-02-12T06:52:48;101230.94;;;1.31;87.26
12349;BME280;5974;42.710;27.258;2023-02-12T06:55:15;101232.81;;;1.41;86.12
12349;BME280;5974;42.710;27.258;2023-02-12T06:57:42;101218.59;;;1.69;85.37
12349;BME280;5974;42.710;27.258;2023-02-12T07:00:09;101228.53;;;2.07;83.76
12349;BME280;5974;42.710;27.258;2023-02-12T07:02:37;101221.13;;;2.36;81.13
12349;BME280;5974;42.710;27.258;2023-02-12T07:05:04;101227.28;;;2.50;81.02
12349;BME280;5974;42.710;27.258;2023-02-12T07:07:31;101214.13;;;2.26;80.31
12349;BME280;5974;42.710;27.258;2023-02-12T07:09:59;101232.19;;;2.26;79.90
12349;BME280;5974;42.710;27.258;2023-02-12T07:12:26;101233.69;;;2.93;79.08
12349;BME280;5974;42.710;27.258;2023-02-12T07:14:52;101232.63;;;2.67;77.73
12349;BME280;5974;42.710;27.258;2023-02-12T07:17:19;101234.69;;;3.09;76.76
12349;BME280;5974;42.710;27.258;2023-02-12T07:19:47;101233.00;;;3.14;76.51
12349;BME280;5974;42.710;27.258;2023-02-12T07:22:14;101229.56;;;3.10;76.10
12349;BME280;5974;42.710;27.258;2023-02-12T07:24:41;101243.81;;;3.91;75.47
12349;BME280;5974;42.710;27.258;2023-02-12T07:27:09;101241.78;;;3.34;73.51
12349;BME280;5974;42.710;27.258;2023-02-12T07:29:36;101238.78;;;4.24;73.57
12349;BME280;5974;42.710;27.258;2023-02-12T07:32:03;101242.22;;;4.17;71.42
12349;BME280;5974;42.710;27.258;2023-02-12T07:34:30;101241.41;;;4.36;70.46
12349;BME280;5974;42.710;27.258;2023-02-12T07:36:57;101114.56;;;4.55;68.82
12349;BME280;5974;42.710;27.258;2023-02-12T07:39:23;101222.16;;;6.28;66.63
12349;BME280;5974;42.710;27.258;2023-02-12T07:41:50;101223.16;;;6.02;64.25
12349;BME280;5974;42.710;27.258;2023-02-12T07:44:18;101225.78;;;5.91;65.10
12349;BME280;5974;42.710;27.258;2023-02-12T07:46:47;101232.47;;;6.40;62.36
12349;BME280;5974;42.710;27.258;2023-02-12T07:49:16;101239.44;;;6.34;62.54
12349;BME280;5974;42.710;27.258;2023-02-12T07:51:44;101238.22;;;6.91;62.70
12349;BME280;5974;42.710;27.258;2023-02-12T07:54:12;101233.41;;;7.41;62.13
12349;BME280;5974;42.710;27.258;2023-02-12T07:56:40;101241.28;;;7.35;60.30
12349;BME280;5974;42.710;27.258;2023-02-12T07:59:10;101236.53;;;6.84;61.40
12349;BME280;5974;42.710;27.258;2023-02-12T08:01:40;101230.81;;;6.29;63.38
12349;BME280;5974;42.710;27.258;2023-02-12T08:04:09;101238.28;;;6.80;63.31
12349;BME280;5974;42.710;27.258;2023-02-12T08:06:39;101228.09;;;6.50;62.83
12349;BME280;5974;42.710;27.258;2023-02-12T08:09:08;101224.66;;;6.46;63.74
12349;BME280;5974;42.710;27.258;2023-02-12T08:11:36;101230.94;;;7.29;61.84
12349;BME280;5974;42.710;27.258;2023-02-12T08:14:03;101231.00;;;7.25;60.51
12349;BME280;5974;42.710;27.258;2023-02-12T08:16:31;101221.22;;;6.40;61.08
12349;BME280;5974;42.710;27.258;2023-02-12T08:19:03;101225.34;;;6.74;60.97
12349;BME280;5974;42.710;27.258;2023-02-12T08:21:30;101230.25;;;7.14;59.79
12349;BME280;5974;42.710;27.258;2023-02-12T08:23:57;101237.22;;;7.05;59.90
12349;BME280;5974;42.710;27.258;2023-02-12T08:26:27;101241.09;;;6.47;60.57
12349;BME280;5974;42.710;27.258;2023-02-12T08:28:56;101214.06;;;6.80;60.33
12349;BME280;5974;42.710;27.258;2023-02-12T08:31:25;101241.91;;;6.57;61.18
12349;BME280;5974;42.710;27.258;2023-02-12T08:33:54;101251.28;;;6.77;60.46
12349;BME280;5974;42.710;27.258;2023-02-12T08:36:24;101248.81;;;6.61;60.57
12349;BME280;5974;42.710;27.258;2023-02-12T08:38:51;101257.31;;;6.85;59.65
12349;BME280;5974;42.710;27.258;2023-02-12T08:41:20;101244.31;;;6.84;59.53
12349;BME280;5974;42.710;27.258;2023-02-12T08:43:48;101253.03;;;6.80;59.68
12349;BME280;5974;42.710;27.258;2023-02-12T08:46:17;101250.25;;;7.04;59.54
12349;BME280;5974;42.710;27.258;2023-02-12T08:48:44;101246.91;;;7.80;57.82
12349;BME280;5974;42.710;27.258;2023-02-12T08:51:13;101251.00;;;8.00;57.10
12349;BME280;5974;42.710;27.258;2023-02-12T08:53:43;101255.66;;;7.74;58.32
12349;BME280;5974;42.710;27.258;2023-02-12T08:56:13;101262.34;;;7.96;57.87
12349;BME280;5974;42.710;27.258;2023-02-12T08:58:40;101267.31;;;8.16;55.24
12349;BME280;5974;42.710;27.258;2023-02-12T09:01:09;101264.84;;;7.19;56.94
12349;BME280;5974;42.710;27.258;2023-02-12T09:03:36;101281.22;;;7.30;56.43
12349;BME280;5974;42.710;27.258;2023-02-12T09:06:03;101263.56;;;7.65;55.77
12349;BME280;5974;42.710;27.258;2023-02-12T09:08:31;101268.84;;;7.54;55.84
12349;BME280;5974;42.710;27.258;2023-02-12T09:11:03;101278.13;;;7.84;54.72
12349;BME280;5974;42.710;27.258;2023-02-12T09:13:30;101272.94;;;7.81;54.28
12349;BME280;5974;42.710;27.258;2023-02-12T09:15:59;101269.84;;;7.41;55.21
12349;BME280;5974;42.710;27.258;2023-02-12T09:18:26;101274.03;;;7.59;55.56
12349;BME280;5974;42.710;27.258;2023-02-12T09:20:53;101278.25;;;7.69;54.23
12349;BME280;5974;42.710;27.258;2023-02-12T09:23:20;101272.13;;;7.73;55.82
12349;BME280;5974;42.710;27.258;2023-02-12T09:25:47;101273.00;;;7.75;55.36
12349;BME280;5974;42.710;27.258;2023-02-12T09:28:15;101282.69;;;7.61;54.87
12349;BME280;5974;42.710;27.258;2023-02-12T09:30:42;101279.78;;;7.90;54.95
12349;BME280;5974;42.710;27.258;2023-02-12T09:33:10;101270.53;;;7.60;54.71
12349;BME280;5974;42.710;27.258;2023-02-12T09:35:38;101280.13;;;7.55;55.22
12349;BME280;5974;42.710;27.258;2023-02-12T09:38:06;101287.03;;;7.59;53.87
12349;BME280;5974;42.710;27.258;2023-02-12T09:40:38;101279.06;;;7.76;53.67
12349;BME280;5974;42.710;27.258;2023-02-12T09:43:17;101282.19;;;8.06;54.33
12349;BME280;5974;42.710;27.258;2023-02-12T09:45:51;101287.50;;;7.97;53.20
12349;BME280;5974;42.710;27.258;2023-02-12T09:48:37;101280.88;;;7.66;53.77
12349;BME280;5974;42.710;27.258;2023-02-12T09:51:07;101284.38;;;7.63;53.58
12349;BME280;5974;42.710;27.258;2023-02-12T09:53:38;101281.19;;;7.33;53.12
12349;BME280;5974;42.710;27.258;2023-02-12T09:56:12;101282.28;;;7.11;54.44
12349;BME280;5974;42.710;27.258;2023-02-12T09:58:45;101280.22;;;7.47;54.63
12349;BME280;5974;42.710;27.258;2023-02-12T10:01:14;101287.03;;;7.57;54.48
12349;BME280;5974;42.710;27.258;2023-02-12T10:03:42;101288.06;;;7.41;54.34
12349;BME280;5974;42.710;27.258;2023-02-12T10:06:13;101288.81;;;7.54;54.36
12349;BME280;5974;42.710;27.258;2023-02-12T10:11:54;101282.81;;;7.46;53.92
12349;BME280;5974;42.710;27.258;2023-02-12T10:17:22;101277.06;;;7.07;55.00
12349;BME280;5974;42.710;27.258;2023-02-12T10:26:08;101272.16;;;7.70;54.94
12349;BME280;5974;42.710;27.258;2023-02-12T10:28:40;101278.13;;;7.83;54.65
12349;BME280;5974;42.710;27.258;2023-02-12T10:31:13;101281.50;;;7.91;54.44
12349;BME280;5974;42.710;27.258;2023-02-12T10:33:43;101286.44;;;8.13;54.60
12349;BME280;5974;42.710;27.258;2023-02-12T10:36:15;101279.31;;;8.31;54.09
12349;BME280;5974;42.710;27.258;2023-02-12T10:38:48;101290.16;;;7.93;53.91
12349;BME280;5974;42.710;27.258;2023-02-12T10:41:16;101286.25;;;8.32;54.21
12349;BME280;5974;42.710;27.258;2023-02-12T10:43:43;101257.16;;;7.95;53.95
12349;BME280;5974;42.710;27.258;2023-02-12T10:46:13;101282.81;;;8.28;54.36
12349;BME280;5974;42.710;27.258;2023-02-12T10:48:43;101289.66;;;8.40;53.46
12349;BME280;5974;42.710;27.258;2023-02-12T10:51:24;101280.88;;;8.44;53.89
12349;BME280;5974;42.710;27.258;2023-02-12T10:53:56;101275.53;;;8.54;54.33
12349;BME280;5974;42.710;27.258;2023-02-12T10:56:23;101282.78;;;8.94;53.81
12349;BME280;5974;42.710;27.258;2023-02-12T10:58:53;101291.00;;;8.66;54.22
12349;BME280;5974;42.710;27.258;2023-02-12T11:01:24;101278.47;;;8.29;54.51
12349;BME280;5974;42.710;27.258;2023-02-12T11:03:52;101287.50;;;8.67;54.65
12349;BME280;5974;42.710;27.258;2023-02-12T11:06:25;101305.03;;;8.58;55.04
12349;BME280;5974;42.710;27.258;2023-02-12T11:08:54;101292.22;;;8.41;55.70
12349;BME280;5974;42.710;27.258;2023-02-12T11:11:23;101306.16;;;8.37;55.76
12349;BME280;5974;42.710;27.258;2023-02-12T11:13:56;101302.69;;;8.38;55.65
12349;BME280;5974;42.710;27.258;2023-02-12T11:16:28;101312.03;;;8.53;55.96
12349;BME280;5974;42.710;27.258;2023-02-12T11:19:01;101317.13;;;8.62;56.36
12349;BME280;5974;42.710;27.258;2023-02-12T11:21:29;101313.63;;;8.64;56.74
12349;BME280;5974;42.710;27.258;2023-02-12T11:23:56;101322.72;;;8.97;56.91
12349;BME280;5974;42.710;27.258;2023-02-12T11:26:26;101307.66;;;9.16;56.46
12349;BME280;5974;42.710;27.258;2023-02-12T11:28:55;101325.69;;;9.31;56.71
12349;BME280;5974;42.710;27.258;2023-02-12T11:31:24;101309.66;;;8.99;56.35
12349;BME280;5974;42.710;27.258;2023-02-12T11:34:12;101319.34;;;8.91;57.41
12349;BME280;5974;42.710;27.258;2023-02-12T11:36:42;101328.34;;;9.26;57.29
12349;BME280;5974;42.710;27.258;2023-02-12T11:39:18;101346.72;;;9.20;56.10
12349;BME280;5974;42.710;27.258;2023-02-12T11:41:51;101328.50;;;9.19;55.52
12349;BME280;5974;42.710;27.258;2023-02-12T11:44:20;101329.22;;;8.67;56.46
12349;BME280;5974;42.710;27.258;2023-02-12T11:46:49;101329.22;;;8.69;56.67
12349;BME280;5974;42.710;27.258;2023-02-12T11:49:22;101322.88;;;8.16;56.93
12349;BME280;5974;42.710;27.258;2023-02-12T11:51:50;101332.66;;;7.95;57.44
12349;BME280;5974;42.710;27.258;2023-02-12T11:54:20;101336.28;;;7.80;57.63
12349;BME280;5974;42.710;27.258;2023-02-12T11:56:48;101334.66;;;7.67;58.68
12349;BME280;5974;42.710;27.258;2023-02-12T11:59:26;101329.78;;;7.31;59.41
12349;BME280;5974;42.710;27.258;2023-02-12T12:01:58;101344.63;;;7.20;60.08
12349;BME280;5974;42.710;27.258;2023-02-12T12:04:29;101322.28;;;6.88;60.70
12349;BME280;5974;42.710;27.258;2023-02-12T12:07:01;101336.13;;;6.95;61.54
12349;BME280;5974;42.710;27.258;2023-02-12T12:09:35;101344.78;;;6.89;61.69
12349;BME280;5974;42.710;27.258;2023-02-12T12:12:09;101338.81;;;6.80;62.48
12349;BME280;5974;42.710;27.258;2023-02-12T12:14:41;101330.88;;;6.99;62.39
12349;BME280;5974;42.710;27.258;2023-02-12T12:17:25;101325.69;;;7.01;62.75
12349;BME280;5974;42.710;27.258;2023-02-12T12:20:20;101335.13;;;7.13;62.88
12349;BME280;5974;42.710;27.258;2023-02-12T12:22:52;101334.97;;;7.31;63.20
12349;BME280;5974;42.710;27.258;2023-02-12T12:25:24;101342.06;;;7.09;62.60
12349;BME280;5974;42.710;27.258;2023-02-12T12:27:59;101342.94;;;7.09;62.91
12349;BME280;5974;42.710;27.258;2023-02-12T12:30:52;101343.69;;;7.28;63.30
12349;BME280;5974;42.710;27.258;2023-02-12T12:33:29;101347.16;;;7.27;63.02
12349;BME280;5974;42.710;27.258;2023-02-12T12:38:54;101357.38;;;7.53;63.12
12349;BME280;5974;42.710;27.258;2023-02-12T12:41:31;101357.66;;;7.12;64.48
12349;BME280;5974;42.710;27.258;2023-02-12T12:44:13;101355.22;;;6.85;65.99
12349;BME280;5974;42.710;27.258;2023-02-12T12:46:59;101365.59;;;6.88;66.77
12349;BME280;5974;42.710;27.258;2023-02-12T12:55:43;101377.00;;;6.64;69.34
12349;BME280;5974;42.710;27.258;2023-02-12T12:58:22;101382.25;;;6.37;69.81
12349;BME280;5974;42.710;27.258;2023-02-12T13:01:07;101390.09;;;6.28;70.64
12349;BME280;5974;42.710;27.258;2023-02-12T13:06:55;101398.72;;;6.40;71.58
12349;BME280;5974;42.710;27.258;2023-02-12T13:09:46;101387.38;;;6.67;71.23
12349;BME280;5974;42.710;27.258;2023-02-12T13:12:37;101396.75;;;6.95;69.77
12349;BME280;5974;42.710;27.258;2023-02-12T13:15:16;101423.69;;;6.82;68.64
12349;BME280;5974;42.710;27.258;2023-02-12T13:17:49;101403.84;;;6.60;68.77
12349;BME280;5974;42.710;27.258;2023-02-12T13:20:22;101406.47;;;6.52;67.85
12349;BME280;5974;42.710;27.258;2023-02-12T13:22:56;101415.16;;;6.41;68.60
12349;BME280;5974;42.710;27.258;2023-02-12T13:25:38;101426.41;;;6.40;68.45
12349;BME280;5974;42.710;27.258;2023-02-12T13:28:12;101431.59;;;6.53;68.24
12349;BME280;5974;42.710;27.258;2023-02-12T13:30:44;101435.13;;;6.27;67.84
12349;BME280;5974;42.710;27.258;2023-02-12T13:33:17;101436.88;;;6.08;68.66
12349;BME280;5974;42.710;27.258;2023-02-12T13:35:48;101449.00;;;5.98;68.82